createdAt,value
2017-01-28T00:02:03.195Z,48.2
2017-01-28T00:04:35.599Z,48.2
2017-01-28T00:07:08.915Z,48.3
2017-01-28T00:09:41.298Z,48.3
2017-01-28T00:12:14.119Z,48.3
2017-01-28T00:14:46.508Z,48.3
2017-01-28T00:17:18.921Z,48.3
2017-01-28T00:19:51.744Z,48.3
2017-01-28T00:22:24.138Z,48.2
2017-01-28T00:24:56.548Z,47.9
2017-01-28T00:27:28.935Z,47.8
2017-01-28T00:30:01.338Z,47.7
2017-01-28T00:32:34.160Z,47.7
2017-01-28T00:35:06.989Z,47.8
2017-01-28T00:37:39.387Z,47.8
2017-01-28T00:40:11.812Z,47.7
2017-01-28T00:42:44.291Z,47.7
2017-01-28T00:45:16.702Z,47.7
2017-01-28T00:47:49.091Z,47.6
2017-01-28T00:50:21.629Z,47.6
2017-01-28T00:52:54.014Z,47.6
2017-01-28T00:55:26.402Z,47.6
2017-01-28T00:57:58.813Z,47.5
2017-01-28T01:00:31.215Z,47.4
2017-01-28T01:03:03.684Z,47.2
2017-01-28T01:05:36.503Z,47.2
2017-01-28T01:08:08.901Z,47.1
2017-01-28T01:10:41.728Z,47
2017-01-28T01:13:14.136Z,46.8
2017-01-28T01:15:46.535Z,46.7
2017-01-28T01:18:19.361Z,46.7
2017-01-28T01:20:51.952Z,46.6
2017-01-28T01:23:24.358Z,46.5
2017-01-28T01:25:56.759Z,46.4
2017-01-28T01:28:29.157Z,46.4
2017-01-28T01:31:01.544Z,46.4
2017-01-28T01:33:33.945Z,46.3
2017-01-28T01:36:06.352Z,46.3
2017-01-28T01:38:38.753Z,46.3
2017-01-28T01:41:11.150Z,46.3
2017-01-28T01:43:43.544Z,46.3
2017-01-28T01:46:15.943Z,46.3
2017-01-28T01:48:48.334Z,46.3
2017-01-28T01:51:20.718Z,46.4
2017-01-28T01:53:53.099Z,46.4
2017-01-28T01:56:25.487Z,46.4
2017-01-28T01:58:57.904Z,46.4
2017-01-28T02:01:30.742Z,46.4
2017-01-28T02:04:03.144Z,46.4
2017-01-28T02:06:35.967Z,46.4
2017-01-28T02:09:08.373Z,46.4
2017-01-28T02:11:40.755Z,46.4
2017-01-28T02:14:13.149Z,46.4
2017-01-28T02:16:45.525Z,46.3
2017-01-28T02:19:18.364Z,46.3
2017-01-28T02:21:50.761Z,46.3
2017-01-28T02:24:23.160Z,46.3
2017-01-28T02:26:55.559Z,46.3
2017-01-28T02:29:27.958Z,46.2
2017-01-28T02:32:00.344Z,46.2
2017-01-28T02:34:32.719Z,46.2
2017-01-28T02:37:05.567Z,46.2
2017-01-28T02:39:37.973Z,46.2
2017-01-28T02:42:10.803Z,46.1
2017-01-28T02:44:43.607Z,46.2
2017-01-28T02:47:16.439Z,46.1
2017-01-28T02:49:49.259Z,46.1
2017-01-28T02:52:22.065Z,46.1
2017-01-28T02:54:54.450Z,46.1
2017-01-28T02:57:27.269Z,46.1
2017-01-28T02:59:59.662Z,46
2017-01-28T03:02:32.050Z,46
2017-01-28T03:05:04.899Z,46.1
2017-01-28T03:07:37.275Z,46
2017-01-28T03:10:09.655Z,46
2017-01-28T03:12:42.477Z,46
2017-01-28T03:15:15.299Z,46
2017-01-28T03:17:47.697Z,46
2017-01-28T03:20:20.094Z,46
2017-01-28T03:22:52.480Z,46.1
2017-01-28T03:25:25.305Z,46.1
2017-01-28T03:27:57.691Z,46.1
2017-01-28T03:30:30.098Z,46.1
2017-01-28T03:33:02.510Z,46.1
2017-01-28T03:35:35.331Z,46.1
2017-01-28T03:38:07.707Z,46.1
2017-01-28T03:40:40.085Z,46.2
2017-01-28T03:43:12.912Z,46.2
2017-01-28T03:45:45.300Z,46.1
2017-01-28T03:48:17.690Z,46.2
2017-01-28T03:50:50.083Z,46.1
2017-01-28T03:53:23.328Z,46.1
2017-01-28T03:55:55.740Z,46.1
2017-01-28T03:58:28.158Z,46.1
2017-01-28T04:01:00.543Z,46.1
2017-01-28T04:03:32.928Z,46
2017-01-28T04:06:05.331Z,46
2017-01-28T04:08:37.727Z,46
2017-01-28T04:11:10.168Z,46
2017-01-28T04:13:42.558Z,46
2017-01-28T04:16:14.953Z,46
2017-01-28T04:18:47.804Z,46
2017-01-28T04:21:20.196Z,46
2017-01-28T04:23:52.593Z,46
2017-01-28T04:26:24.992Z,46
2017-01-28T04:28:57.392Z,46
2017-01-28T04:31:29.772Z,46
2017-01-28T04:34:02.591Z,46
2017-01-28T04:36:34.987Z,46.1
2017-01-28T04:39:07.376Z,46.1
2017-01-28T04:41:40.181Z,46.1
2017-01-28T04:44:12.570Z,46.1
2017-01-28T04:46:44.960Z,46.1
2017-01-28T04:49:17.363Z,46.1
2017-01-28T04:51:49.740Z,46.1
2017-01-28T04:54:22.146Z,46.1
2017-01-28T04:56:54.574Z,46
2017-01-28T04:59:26.980Z,46.1
2017-01-28T05:01:59.375Z,46.1
2017-01-28T05:04:31.786Z,46.1
2017-01-28T05:07:04.167Z,46.1
2017-01-28T05:09:37.013Z,46.1
2017-01-28T05:12:09.404Z,46.1
2017-01-28T05:14:42.260Z,46.1
2017-01-28T05:17:14.650Z,46.1
2017-01-28T05:19:47.049Z,46.1
2017-01-28T05:22:19.459Z,46.1
2017-01-28T05:24:51.831Z,46.1
2017-01-28T05:27:24.224Z,46.1
2017-01-28T05:29:56.611Z,46.1
2017-01-28T05:32:29.001Z,46.1
2017-01-28T05:35:01.394Z,46.2
2017-01-28T05:37:33.796Z,46.2
2017-01-28T05:40:06.190Z,46.2
2017-01-28T05:42:38.574Z,46.2
2017-01-28T05:45:10.971Z,46.2
2017-01-28T05:47:43.347Z,46.1
2017-01-28T05:50:15.749Z,46.2
2017-01-28T05:52:48.137Z,46.2
2017-01-28T05:55:20.957Z,46.2
2017-01-28T05:57:53.352Z,46.1
2017-01-28T06:00:26.162Z,46.2
2017-01-28T06:02:58.569Z,46.2
2017-01-28T06:05:31.395Z,46.2
2017-01-28T06:08:03.774Z,46.2
2017-01-28T06:10:36.171Z,46.2
2017-01-28T06:13:08.565Z,46.2
2017-01-28T06:15:41.378Z,46.2
2017-01-28T06:18:14.207Z,46.2
2017-01-28T06:20:47.011Z,46.2
2017-01-28T06:23:19.399Z,46.2
2017-01-28T06:25:52.210Z,46.2
2017-01-28T06:28:24.583Z,46.2
2017-01-28T06:30:56.982Z,46.2
2017-01-28T06:33:29.578Z,46.2
2017-01-28T06:36:02.399Z,46.2
2017-01-28T06:38:34.786Z,46.2
2017-01-28T06:41:07.192Z,46.2
2017-01-28T06:43:39.571Z,46.1
2017-01-28T06:46:12.371Z,46.2
2017-01-28T06:48:44.776Z,46.2
2017-01-28T06:51:17.597Z,46.1
2017-01-28T06:53:50.009Z,46.2
2017-01-28T06:56:22.383Z,46.1
2017-01-28T06:58:54.770Z,46.2
2017-01-28T07:01:27.594Z,46.1
2017-01-28T07:04:00.434Z,46.1
2017-01-28T07:06:32.831Z,46.1
2017-01-28T07:09:05.246Z,46.2
2017-01-28T07:11:37.636Z,46.1
2017-01-28T07:14:10.444Z,46.1
2017-01-28T07:16:42.848Z,46.1
2017-01-28T07:19:16.524Z,46.1
2017-01-28T07:21:48.929Z,46.1
2017-01-28T07:24:21.316Z,46
2017-01-28T07:26:53.714Z,46.1
2017-01-28T07:29:26.117Z,46
2017-01-28T07:31:58.919Z,46.1
2017-01-28T07:34:31.317Z,46.1
2017-01-28T07:37:04.546Z,46.1
2017-01-28T07:39:37.358Z,46.1
2017-01-28T07:42:09.754Z,46.1
2017-01-28T07:44:42.153Z,46.1
2017-01-28T07:47:14.537Z,46.1
2017-01-28T07:49:46.903Z,46.1
2017-01-28T07:52:19.306Z,46.1
2017-01-28T07:54:51.685Z,46.2
2017-01-28T07:57:24.517Z,46.2
2017-01-28T07:59:56.899Z,46.2
2017-01-28T08:02:29.298Z,46.2
2017-01-28T08:05:01.698Z,45.7
2017-01-28T08:07:34.527Z,45.8
2017-01-28T08:10:06.941Z,46
2017-01-28T08:12:39.338Z,46
2017-01-28T08:15:11.745Z,45.9
2017-01-28T08:17:44.152Z,42.9
2017-01-28T08:20:16.613Z,38.4
2017-01-28T08:22:49.431Z,36.9
2017-01-28T08:25:21.814Z,39.9
2017-01-28T08:27:54.205Z,43.5
2017-01-28T08:30:26.611Z,43.6
2017-01-28T08:32:59.099Z,43.8
2017-01-28T08:35:31.954Z,43.8
2017-01-28T08:38:04.775Z,43.9
2017-01-28T08:40:37.181Z,44
2017-01-28T08:43:10.010Z,44.1
2017-01-28T08:45:42.882Z,44.2
2017-01-28T08:48:15.399Z,44.3
2017-01-28T08:50:47.789Z,44.4
2017-01-28T08:53:20.185Z,44.4
2017-01-28T08:55:52.583Z,44.5
2017-01-28T08:58:24.998Z,44.6
2017-01-28T09:00:57.392Z,44.6
2017-01-28T09:03:29.780Z,44.6
2017-01-28T09:06:02.211Z,44.7
2017-01-28T09:08:34.610Z,44
2017-01-28T09:11:07.084Z,43.9
2017-01-28T09:13:39.665Z,44.3
2017-01-28T09:16:12.068Z,44.2
2017-01-28T09:18:44.471Z,44.5
2017-01-28T09:21:16.873Z,44.5
2017-01-28T09:23:49.257Z,44.7
2017-01-28T09:26:21.647Z,44.7
2017-01-28T09:28:54.052Z,44.9
2017-01-28T09:31:27.502Z,45.1
2017-01-28T09:33:59.900Z,45.2
2017-01-28T09:36:32.728Z,45.3
2017-01-28T09:39:05.109Z,45.5
2017-01-28T09:41:37.513Z,45.6
2017-01-28T09:44:09.918Z,45.7
2017-01-28T09:46:42.300Z,45.8
2017-01-28T09:49:15.425Z,45.9
2017-01-28T09:51:47.832Z,45.9
2017-01-28T09:54:20.253Z,46
2017-01-28T09:56:52.643Z,46.1
2017-01-28T09:59:25.056Z,46.2
2017-01-28T10:01:57.502Z,46.2
2017-01-28T10:04:30.318Z,46.3
2017-01-28T10:07:03.118Z,46.1
2017-01-28T10:09:36.383Z,46
2017-01-28T10:12:08.798Z,46.3
2017-01-28T10:14:42.054Z,46.4
2017-01-28T10:17:14.464Z,46.3
2017-01-28T10:19:46.878Z,46.3
2017-01-28T10:22:19.277Z,46.3
2017-01-28T10:24:51.647Z,46.3
2017-01-28T10:27:24.066Z,46.2
2017-01-28T10:29:56.446Z,46.2
2017-01-28T10:32:28.877Z,46.3
2017-01-28T10:35:01.275Z,46.3
2017-01-28T10:37:34.091Z,46.3
2017-01-28T10:40:06.486Z,46.3
2017-01-28T10:42:38.887Z,46.2
2017-01-28T10:45:11.293Z,46.1
2017-01-28T10:47:43.684Z,46.1
2017-01-28T10:50:16.070Z,46.2
2017-01-28T10:52:48.462Z,46.1
2017-01-28T10:55:21.698Z,46.1
2017-01-28T10:57:54.943Z,46.1
2017-01-28T11:00:27.327Z,46
2017-01-28T11:02:59.741Z,45.8
2017-01-28T11:05:32.139Z,45.7
2017-01-28T11:08:04.538Z,45.6
2017-01-28T11:10:36.943Z,45.5
2017-01-28T11:13:09.342Z,45.3
2017-01-28T11:15:42.150Z,45.4
2017-01-28T11:18:14.957Z,45.3
2017-01-28T11:20:47.369Z,45.1
2017-01-28T11:23:20.643Z,45.1
2017-01-28T11:25:53.479Z,45.1
2017-01-28T11:28:25.867Z,45.1
2017-01-28T11:30:58.258Z,45.1
2017-01-28T11:33:30.646Z,45.1
2017-01-28T11:36:03.039Z,45.1
2017-01-28T11:38:35.426Z,45.2
2017-01-28T11:41:07.815Z,45.3
2017-01-28T11:43:40.637Z,45.3
2017-01-28T11:46:13.031Z,45.4
2017-01-28T11:48:45.848Z,45.4
2017-01-28T11:51:18.262Z,45.5
2017-01-28T11:53:51.480Z,45.5
2017-01-28T11:56:23.893Z,45.6
2017-01-28T11:58:56.277Z,45.6
2017-01-28T12:01:28.706Z,45.6
2017-01-28T12:04:01.092Z,45.6
2017-01-28T12:06:33.947Z,45.6
2017-01-28T12:09:06.344Z,45.7
2017-01-28T12:11:39.185Z,45.7
2017-01-28T12:14:12.033Z,45.7
2017-01-28T12:16:44.428Z,45.7
2017-01-28T12:19:16.826Z,45.8
2017-01-28T12:21:49.223Z,45.7
2017-01-28T12:24:21.613Z,45.7
2017-01-28T12:26:54.028Z,46
2017-01-28T12:29:26.427Z,45.8
2017-01-28T12:31:58.804Z,43.1
2017-01-28T12:34:31.619Z,41.4
2017-01-28T12:37:04.014Z,33.4
2017-01-28T12:39:36.825Z,30.7
2017-01-28T12:42:09.653Z,29.4
2017-01-28T12:44:42.047Z,28
2017-01-28T12:47:14.441Z,27.8
2017-01-28T12:49:46.820Z,28.8
2017-01-28T12:52:19.209Z,36.2
2017-01-28T12:54:52.056Z,37.4
2017-01-28T12:57:24.449Z,38
2017-01-28T12:59:57.303Z,38.3
2017-01-28T13:02:29.688Z,38.9
2017-01-28T13:05:02.099Z,38.9
2017-01-28T13:07:34.690Z,39.3
2017-01-28T13:10:07.942Z,39.4
2017-01-28T13:12:40.342Z,39.2
2017-01-28T13:15:13.204Z,39.1
2017-01-28T13:17:46.033Z,37.3
2017-01-28T13:20:19.064Z,37.8
2017-01-28T13:22:51.984Z,38.7
2017-01-28T13:25:24.514Z,36.9
2017-01-28T13:27:56.933Z,38
2017-01-28T13:30:29.328Z,38.4
2017-01-28T13:33:02.173Z,38.3
2017-01-28T13:35:35.543Z,38.6
2017-01-28T13:38:07.934Z,38.9
2017-01-28T13:40:40.323Z,39.1
2017-01-28T13:43:12.731Z,39
2017-01-28T13:45:45.119Z,39.2
2017-01-28T13:48:17.688Z,39.5
2017-01-28T13:50:50.070Z,39.2
2017-01-28T13:53:22.470Z,37.7
2017-01-28T13:55:54.861Z,35
2017-01-28T13:58:27.256Z,33
2017-01-28T14:00:59.646Z,37.7
2017-01-28T14:03:32.467Z,32.6
2017-01-28T14:06:04.858Z,30.7
2017-01-28T14:08:37.242Z,30.3
2017-01-28T14:11:09.699Z,29.8
2017-01-28T14:13:42.090Z,29.3
2017-01-28T14:16:14.478Z,29.5
2017-01-28T14:18:46.952Z,29.5
2017-01-28T14:21:19.323Z,29.5
2017-01-28T14:23:51.738Z,29.1
2017-01-28T14:26:24.122Z,29.2
2017-01-28T14:28:56.732Z,29.2
2017-01-28T14:31:29.532Z,29.3
2017-01-28T14:34:02.355Z,29.2
2017-01-28T14:36:34.754Z,29.3
2017-01-28T14:39:10.557Z,29.5
2017-01-28T14:41:46.386Z,30.4
2017-01-28T14:44:18.967Z,34.4
2017-01-28T14:46:51.356Z,36.1
2017-01-28T14:49:23.747Z,36.2
2017-01-28T14:51:56.556Z,36.1
2017-01-28T14:54:28.954Z,36.3
2017-01-28T14:57:01.337Z,36.8
2017-01-28T14:59:33.725Z,37
2017-01-28T15:02:06.132Z,37.3
2017-01-28T15:04:38.521Z,37.6
2017-01-28T15:07:11.363Z,37.8
2017-01-28T15:09:43.759Z,38.1
2017-01-28T15:12:16.159Z,38.2
2017-01-28T15:14:48.579Z,38.4
2017-01-28T15:17:21.609Z,38.6
2017-01-28T15:19:53.996Z,38.8
2017-01-28T15:22:26.377Z,38.8
2017-01-28T15:24:58.787Z,38.8
2017-01-28T15:27:31.167Z,38.9
2017-01-28T15:30:03.575Z,39
2017-01-28T15:32:35.955Z,39.1
2017-01-28T15:35:08.760Z,39.1
2017-01-28T15:37:41.153Z,39.3
2017-01-28T15:40:13.553Z,39.4
2017-01-28T15:42:46.362Z,39.5
2017-01-28T15:45:18.762Z,39.5
2017-01-28T15:47:51.153Z,39.6
2017-01-28T15:50:23.537Z,39.9
2017-01-28T15:52:56.345Z,40.3
2017-01-28T15:55:29.165Z,40
2017-01-28T15:58:01.958Z,40.2
2017-01-28T16:00:34.778Z,39.9
2017-01-28T16:03:07.158Z,40
2017-01-28T16:05:39.562Z,40.1
2017-01-28T16:08:11.979Z,39.7
2017-01-28T16:10:44.472Z,39.7
2017-01-28T16:13:16.930Z,39.9
2017-01-28T16:15:50.637Z,39.8
2017-01-28T16:18:23.570Z,40
2017-01-28T16:20:55.983Z,40.1
2017-01-28T16:23:28.388Z,40.2
2017-01-28T16:26:01.208Z,40.2
2017-01-28T16:28:34.021Z,40.2
2017-01-28T16:31:06.430Z,40.1
2017-01-28T16:33:38.831Z,40.2
2017-01-28T16:36:11.653Z,40.4
2017-01-28T16:38:44.034Z,40.6
2017-01-28T16:41:16.424Z,40.6
2017-01-28T16:43:48.814Z,40.7
2017-01-28T16:46:21.244Z,40.7
2017-01-28T16:48:53.636Z,40.8
2017-01-28T16:51:26.033Z,40.7
2017-01-28T16:53:58.844Z,40.9
2017-01-28T16:56:31.245Z,41.1
2017-01-28T16:59:04.048Z,41.2
2017-01-28T17:01:36.542Z,41.3
2017-01-28T17:04:09.089Z,41.3
2017-01-28T17:06:41.487Z,41.5
2017-01-28T17:09:14.304Z,41.5
2017-01-28T17:11:46.687Z,41.6
2017-01-28T17:14:19.069Z,41.7
2017-01-28T17:16:51.467Z,41.7
2017-01-28T17:19:23.847Z,41.8
2017-01-28T17:21:57.342Z,41.9
2017-01-28T17:24:30.174Z,42
2017-01-28T17:27:02.719Z,41.9
2017-01-28T17:29:35.519Z,42
2017-01-28T17:32:09.118Z,42.1
2017-01-28T17:34:41.562Z,42.1
2017-01-28T17:37:13.991Z,42.3
2017-01-28T17:39:46.793Z,42.3
2017-01-28T17:42:19.185Z,42.4
2017-01-28T17:44:52.025Z,42.3
2017-01-28T17:47:24.405Z,42.3
2017-01-28T17:49:56.788Z,42.1
2017-01-28T17:52:29.622Z,42.2
2017-01-28T17:55:02.006Z,42.2
2017-01-28T17:57:34.417Z,42.2
2017-01-28T18:00:06.793Z,41.9
2017-01-28T18:02:39.625Z,42.3
2017-01-28T18:05:12.465Z,42.3
2017-01-28T18:07:44.850Z,42.4
2017-01-28T18:10:17.265Z,42.5
2017-01-28T18:12:49.681Z,42.6
2017-01-28T18:15:22.253Z,42.6
2017-01-28T18:17:55.052Z,42.6
2017-01-28T18:20:27.446Z,42.5
2017-01-28T18:22:59.849Z,42.6
2017-01-28T18:25:32.235Z,42.6
2017-01-28T18:28:05.246Z,42.7
2017-01-28T18:30:37.628Z,42.7
2017-01-28T18:33:10.022Z,42.8
2017-01-28T18:35:42.400Z,42.8
2017-01-28T18:38:14.778Z,42.9
2017-01-28T18:40:47.584Z,42.8
2017-01-28T18:43:19.961Z,42.8
2017-01-28T18:45:52.374Z,42.8
2017-01-28T18:48:25.399Z,42.9
2017-01-28T18:50:58.217Z,42.9
2017-01-28T18:53:30.641Z,43
2017-01-28T18:56:03.022Z,43.1
2017-01-28T18:58:35.407Z,43.1
2017-01-28T19:01:08.221Z,43.2
2017-01-28T19:03:41.465Z,43.3
2017-01-28T19:06:13.875Z,43.2
2017-01-28T19:08:46.261Z,43.2
2017-01-28T19:11:18.660Z,43.3
2017-01-28T19:13:51.057Z,43.4
2017-01-28T19:16:23.458Z,43.3
2017-01-28T19:18:55.863Z,43.4
2017-01-28T19:21:28.260Z,43.4
2017-01-28T19:24:01.119Z,43.5
2017-01-28T19:26:33.503Z,43.5
2017-01-28T19:29:05.907Z,43.5
2017-01-28T19:31:38.289Z,43.4
2017-01-28T19:34:10.693Z,43.4
2017-01-28T19:36:43.079Z,43.3
2017-01-28T19:39:15.480Z,43.3
2017-01-28T19:41:47.857Z,43.2
2017-01-28T19:44:20.248Z,43.2
2017-01-28T19:46:52.642Z,43.2
2017-01-28T19:49:25.020Z,43.2
2017-01-28T19:51:57.398Z,43.1
2017-01-28T19:54:30.212Z,43.1
2017-01-28T19:57:02.605Z,43.1
2017-01-28T19:59:35.005Z,43
2017-01-28T20:02:07.377Z,43
2017-01-28T20:04:40.191Z,43
2017-01-28T20:07:12.568Z,42.9
2017-01-28T20:09:45.385Z,43.1
2017-01-28T20:12:17.796Z,43.1
2017-01-28T20:14:50.192Z,43.1
2017-01-28T20:17:23.036Z,43.1
2017-01-28T20:19:55.430Z,43.1
2017-01-28T20:22:28.287Z,43.1
2017-01-28T20:25:01.113Z,43.2
2017-01-28T20:27:33.511Z,43.1
2017-01-28T20:30:05.910Z,43.1
2017-01-28T20:32:38.731Z,43.1
2017-01-28T20:35:11.143Z,43
2017-01-28T20:37:43.532Z,43
2017-01-28T20:40:15.923Z,43
2017-01-28T20:42:48.312Z,43
2017-01-28T20:45:20.715Z,43
2017-01-28T20:47:53.108Z,43
2017-01-28T20:50:25.502Z,43
2017-01-28T20:52:58.304Z,43
2017-01-28T20:55:30.676Z,43
2017-01-28T20:58:03.061Z,43
2017-01-28T21:00:35.464Z,43.1
2017-01-28T21:03:08.297Z,43.1
2017-01-28T21:05:41.101Z,43.1
2017-01-28T21:08:13.509Z,43.1
2017-01-28T21:10:46.785Z,43.1
2017-01-28T21:13:19.604Z,43.1
2017-01-28T21:15:51.999Z,43
2017-01-28T21:18:24.394Z,43.1
2017-01-28T21:20:56.783Z,43.1
2017-01-28T21:23:29.594Z,43
2017-01-28T21:26:02.012Z,43
2017-01-28T21:28:34.806Z,43
2017-01-28T21:31:07.212Z,43
2017-01-28T21:33:39.581Z,43
2017-01-28T21:36:11.970Z,43
2017-01-28T21:38:44.356Z,43
2017-01-28T21:41:16.751Z,42.9
2017-01-28T21:43:49.144Z,42.9
2017-01-28T21:46:21.535Z,43
2017-01-28T21:48:54.343Z,43
2017-01-28T21:51:26.738Z,43
2017-01-28T21:53:59.135Z,43.4
2017-01-28T21:56:32.146Z,43.7
2017-01-28T21:59:05.197Z,43.8
2017-01-28T22:01:38.011Z,43.8
2017-01-28T22:04:10.409Z,43.9
2017-01-28T22:06:42.811Z,43.9
2017-01-28T22:09:16.068Z,44
2017-01-28T22:11:48.944Z,44
2017-01-28T22:14:22.042Z,44.1
2017-01-28T22:16:55.742Z,44.1
2017-01-28T22:19:30.488Z,44.2
2017-01-28T22:22:03.616Z,44.1
2017-01-28T22:24:36.656Z,44.1
2017-01-28T22:27:09.881Z,44.2
2017-01-28T22:29:42.710Z,44.3
2017-01-28T22:32:15.195Z,44.3
2017-01-28T22:34:48.144Z,44.4
2017-01-28T22:37:20.692Z,44.4
2017-01-28T22:39:53.085Z,44.4
2017-01-28T22:42:26.016Z,44.4
2017-01-28T22:44:58.413Z,44.4
2017-01-28T22:47:30.812Z,44.5
2017-01-28T22:50:03.227Z,44.5
2017-01-28T22:52:35.625Z,44.5
2017-01-28T22:55:08.081Z,44.4
2017-01-28T22:57:40.912Z,44.5
2017-01-28T23:00:13.728Z,44.4
2017-01-28T23:02:46.340Z,44.6
2017-01-28T23:05:19.142Z,44.6
2017-01-28T23:07:52.026Z,44.6
2017-01-28T23:10:24.462Z,44.6
2017-01-28T23:12:57.292Z,44.7
2017-01-28T23:15:30.189Z,44.6
2017-01-28T23:18:03.037Z,44.6
2017-01-28T23:20:35.418Z,44.7
2017-01-28T23:23:07.902Z,44.7
2017-01-28T23:25:41.203Z,44.7
2017-01-28T23:28:14.028Z,44.8
2017-01-28T23:30:46.431Z,44.4
2017-01-28T23:33:18.844Z,44.4
2017-01-28T23:35:51.648Z,44.5
2017-01-28T23:38:24.066Z,44.2
2017-01-28T23:40:56.450Z,44.5
2017-01-28T23:43:28.860Z,44.6
2017-01-28T23:46:02.110Z,44.6
2017-01-28T23:48:34.954Z,44.6
2017-01-28T23:51:07.345Z,44.6
2017-01-28T23:53:39.990Z,44.6
2017-01-28T23:56:12.863Z,44.5
2017-01-28T23:58:45.268Z,44.5
